Terminal Aerodrome Forecast
Issued by NWS Tampa Bay Area, FL

Current Version | Previous Version | Text Only | Print | Product List | Glossary On
Versions: 1 2 3 4 5 6 7 8 9 10 11 12 13
000
FTUS42 KTBW 251120
TAFSRQ
TAF
KSRQ 251120Z 2512/2612 12005KT P6SM SKC
     FM251400 14007KT P6SM FEW030 SCT250
     FM251700 19009KT P6SM VCTS SCT035CB SCT080 BKN250
     FM260200 14004KT P6SM FEW035 SCT250=

USA.gov is the U.S. government's official web portal to all federal, state and local government web resources and services.